Latest Weather Observations for Pound Creek

IDV60801

Issued at 11:35 pm EDT Thursday 30 October 2014 (issued every 30 minutes, with the page automatically refreshed every 10 minutes)

About weather observations | Map of weather stations | Latest weather observations for VIC | Other Formats
Station Details ID: 085099 Name: POUND CREEK Lat: -38.63 Lon: 145.81 Height: 3.0 m
Data from the previous 72 hours. | See also: Recent months at Pound Creek
Date/Time
EDT
Temp
°C
App
Temp
°C
Dew
Point
Rel
Hum
%
Delta-T
°C
Wind Press
QNH
hPa
Press
MSL
hPa
Rain
since 9 am
mm
Dir
 
Spd
km/h
Gust
km/h
Spd
kts
Gust
kts
30/11:30pm 8.7 7.1 8.1 96 0.3 N 6 9 3 5 1014.1 1014.1 0.0
30/11:00pm 8.3 7.0 7.7 96 0.3 N 4 6 2 3 1014.1 1014.1 0.0
30/10:30pm 8.6 7.3 7.8 95 0.4 N 4 6 2 3 1014.2 1014.2 0.0
30/10:00pm 8.8 7.6 7.9 94 0.4 N 4 6 2 3 1014.2 1014.2 0.0
30/09:30pm 9.6 8.9 8.5 93 0.5 N 2 4 1 2 1014.2 1014.2 0.0
30/09:00pm 10.5 10.0 9.3 92 0.6 N 2 4 1 2 1013.9 1013.9 0.0
30/08:30pm 11.6 11.7 10.0 90 0.8 CALM 0 0 0 0 1013.7 1013.7 0.0
30/08:00pm 12.7 12.0 10.2 85 1.3 SW 4 6 2 3 1013.7 1013.7 0.0
30/07:30pm 13.6 11.7 10.4 81 1.7 SW 11 15 6 8 1013.7 1013.7 0.0
30/07:00pm 14.1 11.7 10.1 77 2.1 SW 13 19 7 10 1013.7 1013.7 0.0
30/06:30pm 15.1 11.7 10.7 75 2.3 SW 19 22 10 12 1013.5 1013.5 0.0
30/06:00pm 15.6 12.3 11.0 74 2.5 SW 19 24 10 13 1013.5 1013.5 0.0
30/05:30pm 16.1 13.1 10.6 70 2.9 SW 17 22 9 12 1013.3 1013.3 0.0
30/05:00pm 16.2 12.5 10.3 68 3.1 WSW 20 26 11 14 1013.3 1013.3 0.0
30/04:30pm 16.3 11.8 10.2 67 3.2 SW 24 30 13 16 1013.5 1013.5 0.0
30/04:00pm 16.7 11.7 9.4 62 3.8 WSW 26 32 14 17 1013.5 1013.5 0.0
30/03:30pm 16.7 11.9 10.3 66 3.4 SW 26 32 14 17 1013.5 1013.5 0.0
30/03:00pm 17.3 12.7 11.1 67 3.3 WSW 26 35 14 19 1013.5 1013.5 0.0
30/02:30pm 17.6 12.9 10.5 63 3.8 WSW 26 35 14 19 1013.6 1013.6 0.0
30/02:00pm 17.0 13.4 10.4 65 3.5 W 20 32 11 17 1013.9 1013.9 0.0
30/01:30pm 16.7 12.8 9.6 63 3.7 WNW 20 26 11 14 1013.9 1013.9 0.0
30/01:00pm 16.4 13.0 10.7 69 3.0 W 19 32 10 17 1014.2 1014.2 0.0
30/12:30pm 17.0 14.5 11.1 68 3.2 WNW 15 22 8 12 1014.5 1014.5 0.0
30/12:00pm 15.6 12.0 9.9 69 3.0 W 19 26 10 14 1014.6 1014.6 0.0
30/11:30am 15.9 12.3 10.0 68 3.1 W 19 26 10 14 1014.6 1014.6 0.0
30/11:00am 15.6 11.8 9.9 69 3.0 W 20 32 11 17 1014.8 1014.8 0.0
30/10:30am 16.8 12.9 10.9 68 3.2 W 22 30 12 16 1015.0 1015.0 0.0
30/10:00am 15.4 11.7 9.5 68 3.0 W 19 26 10 14 1015.0 1015.0 0.0
30/09:30am 15.4 12.7 11.6 78 2.0 WNW 17 26 9 14 1014.9 1014.9 0.0
30/09:00am 14.6 11.3 11.7 83 1.6 W 20 28 11 15 1015.0 1015.0 0.0
30/08:30am 14.2 11.1 11.7 85 1.3 WNW 19 28 10 15 1014.8 1014.8 0.0
30/08:00am 13.5 12.2 12.6 94 0.5 WNW 11 20 6 11 1014.5 1014.5 0.0
30/07:30am 12.5 12.0 11.9 96 0.3 WNW 6 11 3 6 1014.5 1014.5 0.0
30/07:00am 11.1 10.9 10.3 95 0.4 NW 2 6 1 3 1014.2 1014.2 0.0
30/06:30am 11.0 10.0 10.2 95 0.4 NW 6 9 3 5 1013.8 1013.8 0.0
30/06:00am 11.3 10.2 10.5 95 0.4 NNW 7 9 4 5 1013.5 1013.5 0.0
30/05:30am 11.5 10.6 10.7 95 0.4 NNW 6 7 3 4 1013.7 1013.7 0.0
30/05:00am 11.9 11.0 11.3 96 0.3 N 7 11 4 6 1013.8 1013.8 0.0
30/04:30am 12.1 11.8 11.5 96 0.3 N 4 6 2 3 1013.8 1013.8 0.0
30/04:00am 12.2 11.9 11.6 96 0.3 NW 4 4 2 2 1013.9 1013.9 0.0
30/03:30am 12.2 11.9 11.6 96 0.3 NNW 4 4 2 2 1014.0 1014.0 0.0
30/03:00am 12.2 11.5 11.4 95 0.4 NNW 6 9 3 5 1014.2 1014.2 0.0
30/02:30am 12.3 11.0 11.4 94 0.5 NNW 9 11 5 6 1014.4 1014.4 0.0
30/02:00am 11.9 10.9 11.1 95 0.4 N 7 11 4 6 1014.8 1014.8 0.0
30/01:30am 11.5 10.4 10.7 95 0.4 NNW 7 11 4 6 1015.2 1015.2 0.0
30/01:00am 10.6 9.3 9.8 95 0.4 N 7 9 4 5 1015.4 1015.4 0.0
30/12:30am 10.1 8.6 9.3 95 0.4 N 7 11 4 6 1015.7 1015.7 0.0
30/12:00am 10.1 8.6 9.3 95 0.4 N 7 9 4 5 1015.7 1015.7 0.0
 
Date/Time
EDT
Temp
°C
App
Temp
°C
Dew
Point
Rel
Hum
%
Delta-T
°C
Wind Press
QNH
hPa
Press
MSL
hPa
Rain
since 9 am
mm
Dir
 
Spd
km/h
Gust
km/h
Spd
kts
Gust
kts
29/11:30pm 9.9 8.4 9.0 94 0.4 N 7 9 4 5 1015.7 1015.7 0.0
29/11:00pm 10.8 9.4 9.7 93 0.6 N 7 9 4 5 1015.8 1015.8 0.0
29/10:30pm 11.2 9.9 10.1 93 0.6 N 7 9 4 5 1016.1 1016.1 0.0
29/10:00pm 10.8 9.4 9.7 93 0.6 N 7 9 4 5 1016.2 1016.2 0.0
29/09:30pm 10.7 9.5 9.5 92 0.6 NNW 6 7 3 4 1016.2 1016.2 0.0
29/09:00pm 11.3 10.2 9.9 91 0.7 NNW 6 7 3 4 1016.0 1016.0 0.0
29/08:30pm 11.2 9.7 9.3 88 1.0 WSW 7 9 4 5 1015.8 1015.8 0.0
29/08:00pm 12.1 10.7 9.7 85 1.2 SW 7 11 4 6 1015.6 1015.6 0.0
29/07:30pm 13.3 10.9 10.1 81 1.7 SW 13 17 7 9 1015.5 1015.5 0.0
29/07:00pm 14.3 10.9 10.7 79 1.9 SW 19 24 10 13 1015.3 1015.3 0.0
29/06:30pm 15.1 11.6 10.3 73 2.5 WSW 19 26 10 14 1015.2 1015.2 0.0
29/06:00pm 15.9 12.3 10.4 70 2.9 SW 20 28 11 15 1015.1 1015.1 0.0
29/05:30pm 16.8 13.7 10.4 66 3.4 WSW 17 22 9 12 1014.9 1014.9 0.0
29/05:00pm 16.8 13.1 10.2 65 3.5 WSW 20 26 11 14 1014.9 1014.9 0.0
29/04:30pm 17.3 14.2 11.6 69 3.1 SW 19 24 10 13 1014.9 1014.9 0.0
29/04:00pm 16.9 14.2 10.5 66 3.4 WSW 15 20 8 11 1015.2 1015.2 0.0
29/03:30pm 16.8 13.1 10.2 65 3.5 W 20 35 11 19 1015.5 1015.5 0.0
29/03:00pm 15.6 12.6 10.6 72 2.6 W 17 24 9 13 1016.0 1016.0 0.0
29/02:30pm 15.3 11.6 10.3 72 2.6 W 20 28 11 15 1016.3 1016.3 0.0
29/02:00pm 15.2 11.5 10.0 71 2.7 W 20 28 11 15 1016.6 1016.6 0.0
29/01:30pm 15.7 12.1 10.0 69 3.0 W 19 30 10 16 1016.6 1016.6 0.0
29/01:00pm 15.7 11.1 9.6 67 3.2 W 24 37 13 20 1016.8 1016.8 0.0
29/12:30pm 15.2 10.8 8.9 66 3.2 WNW 22 35 12 19 1017.0 1017.0 0.0
29/12:00pm 15.1 11.8 9.5 69 2.9 WNW 17 28 9 15 1017.3 1017.3 0.0
29/11:30am 14.9 11.2 10.1 73 2.5 W 20 28 11 15 1017.4 1017.4 0.0
29/11:00am 14.4 11.2 9.8 74 2.4 W 17 24 9 13 1017.7 1017.7 0.0
29/10:30am 13.8 10.1 10.2 79 1.9 W 20 26 11 14 1017.9 1017.9 0.0
29/10:00am 13.5 9.9 9.7 78 1.9 WNW 19 30 10 16 1017.8 1017.8 0.0
29/09:30am 13.1 9.8 9.5 79 1.8 WNW 17 26 9 14 1017.9 1017.9 0.0
29/09:00am 12.9 11.3 10.1 83 1.4 WNW 9 17 5 9 1017.9 1017.9 1.8
29/08:30am 12.7 11.1 10.2 85 1.3 NW 9 17 5 9 1017.9 1017.9 1.8
29/08:00am 12.2 11.0 10.3 88 1.0 NNW 7 13 4 7 1017.6 1017.6 1.8
29/07:30am 11.8 10.4 9.7 87 1.1 NW 7 11 4 6 1017.6 1017.6 1.8
29/07:00am 11.5 9.6 8.9 84 1.3 NNW 9 15 5 8 1017.3 1017.3 1.8
29/06:30am 11.6 9.7 7.5 76 2.0 NW 7 13 4 7 1017.0 1017.0 1.8
29/06:00am 12.1 9.0 7.4 73 2.3 W 13 20 7 11 1016.7 1016.7 1.8
29/05:30am 11.7 8.7 7.6 76 2.0 W 13 19 7 10 1016.5 1016.5 1.8
29/05:00am 11.4 9.3 8.1 80 1.6 WNW 9 15 5 8 1016.3 1016.3 1.8
29/04:30am 11.9 8.6 8.0 77 1.9 W 15 20 8 11 1016.1 1016.1 1.8
29/04:00am 11.9 9.1 8.4 79 1.7 W 13 19 7 10 1015.9 1015.9 1.8
29/03:30am 11.7 8.5 8.4 80 1.6 W 15 19 8 10 1015.9 1015.9 1.8
29/03:00am 12.0 8.6 7.7 75 2.1 W 15 22 8 12 1015.8 1015.8 1.8
29/02:30am 11.6 7.7 7.1 74 2.2 W 17 24 9 13 1015.6 1015.6 1.8
29/02:00am 11.4 7.7 8.1 80 1.6 W 17 26 9 14 1015.9 1015.9 1.8
29/01:30am 11.8 7.7 8.8 82 1.5 W 20 26 11 14 1016.0 1016.0 1.8
29/01:00am 11.4 5.1 8.8 84 1.3 WSW 32 44 17 24 1016.3 1016.3 1.8
29/12:30am 11.6 7.5 8.5 81 1.5 W 20 32 11 17 1016.3 1016.3 1.8
29/12:00am 12.1 7.2 8.4 78 1.8 W 24 39 13 21 1016.1 1016.1 1.8
 
Date/Time
EDT
Temp
°C
App
Temp
°C
Dew
Point
Rel
Hum
%
Delta-T
°C
Wind Press
QNH
hPa
Press
MSL
hPa
Rain
since 9 am
mm
Dir
 
Spd
km/h
Gust
km/h
Spd
kts
Gust
kts
28/11:41pm 11.9 5.5 8.6 80 1.6 WSW 32 50 17 27 1015.9 1015.9 1.8
28/11:30pm 12.2 5.3 8.9 80 1.6 WSW 35 50 19 27 1015.9 1015.9 1.8
28/11:26pm 12.4 6.9 9.1 80 1.7 WSW 28 48 15 26 1015.8 1015.8 1.8
28/11:00pm 12.0 6.9 7.5 74 2.2 W 24 33 13 18 1015.7 1015.7 1.8
28/10:30pm 12.3 6.0 7.2 71 2.5 W 30 41 16 22 1015.4 1015.4 1.8
28/10:00pm 12.5 7.0 7.6 72 2.4 W 26 41 14 22 1015.4 1015.4 1.8
28/09:30pm 12.5 6.2 7.6 72 2.4 W 30 41 16 22 1015.3 1015.3 1.8
28/09:00pm 12.9 6.4 8.2 73 2.3 WSW 32 43 17 23 1015.2 1015.2 1.8
28/08:30pm 12.8 6.0 7.7 71 2.5 WSW 33 44 18 24 1014.7 1014.7 1.8
28/08:00pm 12.4 5.1 7.1 70 2.6 WSW 35 46 19 25 1014.4 1014.4 1.8
28/07:30pm 12.9 5.8 8.2 73 2.3 WSW 35 59 19 32 1013.9 1013.9 1.8
28/07:16pm 13.1 5.6 8.0 71 2.5 WSW 37 59 20 32 1013.7 1013.7 1.8
28/07:00pm 13.2 5.3 7.9 70 2.6 WSW 39 54 21 29 1013.4 1013.4 1.8
28/06:30pm 13.8 4.5 7.6 66 3.0 WSW 46 57 25 31 1013.0 1013.0 1.8
28/06:00pm 14.1 5.5 8.3 68 2.9 WSW 43 63 23 34 1012.6 1012.6 1.8
28/05:30pm 14.0 5.8 8.4 69 2.8 WSW 41 65 22 35 1012.4 1012.4 1.8
28/05:00pm 14.2 5.0 8.2 67 3.0 WSW 46 67 25 36 1012.2 1012.2 1.8
28/04:37pm 14.7 7.0 10.3 75 2.3 WSW 41 59 22 32 1012.1 1012.1 1.8
28/04:30pm 14.3 6.1 9.7 74 2.4 WSW 43 59 23 32 1012.0 1012.0 1.8
28/04:00pm 14.5 5.7 9.5 72 2.6 WSW 46 72 25 39 1011.6 1011.6 1.8
28/03:30pm 15.0 6.8 9.6 70 2.8 W 43 65 23 35 1011.3 1011.3 1.8
28/03:05pm 15.3 6.5 9.4 68 3.0 W 46 65 25 35 1011.2 1011.2 1.8
28/03:00pm 15.3 7.0 9.9 70 2.8 W 44 61 24 33 1011.2 1011.2 1.8
28/02:37pm 14.4 6.4 10.4 77 2.1 W 43 63 23 34 1011.0 1011.0 1.8
28/02:30pm 14.8 7.3 10.8 77 2.1 W 41 56 22 30 1010.8 1010.8 1.8
28/02:00pm 15.1 9.4 11.3 78 2.0 W 32 56 17 30 1010.5 1010.5 1.8
28/01:51pm 13.7 7.1 9.9 78 2.0 W 35 56 19 30 1010.8 1010.8 1.8
28/01:30pm 15.3 9.1 10.1 71 2.7 W 33 48 18 26 1010.5 1010.5 1.8
28/01:00pm 16.1 9.0 10.8 71 2.8 W 39 61 21 33 1009.8 1009.8 1.8
28/12:39pm 15.8 10.3 12.0 78 2.1 W 32 50 17 27 1009.6 1009.6 1.8
28/12:30pm 15.2 10.2 12.3 83 1.6 W 30 43 16 23 1009.8 1009.8 1.8
28/12:24pm 14.8 9.3 12.3 85 1.4 W 33 52 18 28 1009.7 1009.7 1.8
28/12:00pm 12.8 5.2 10.5 86 1.2 WSW 41 54 22 29 1009.8 1009.8 1.8
28/11:30am 15.6 9.2 12.0 79 2.0 W 37 59 20 32 1009.4 1009.4 1.6
28/11:00am 13.4 6.3 12.1 92 0.7 W 41 59 22 32 1009.4 1009.4 1.6
28/10:38am 12.9 5.4 10.8 87 1.1 WSW 41 59 22 32 1009.2 1009.2 1.0
28/10:37am 13.3 6.6 11.0 86 1.2 WSW 37 56 20 30 1009.2 1009.2 0.8
28/10:30am 14.1 7.0 10.9 81 1.7 WNW 39 59 21 32 1008.5 1008.5 0.0
28/10:00am 14.8 8.1 9.8 72 2.6 WNW 35 59 19 32 1007.8 1007.8 0.0
28/09:30am 14.9 8.4 10.3 74 2.4 WNW 35 61 19 33 1008.1 1008.1 0.0
28/09:00am 14.0 8.4 10.2 78 2.0 WNW 30 54 16 29 1007.9 1007.9 5.4
28/08:34am 13.6 8.2 9.5 76 2.1 WNW 28 54 15 29 1007.9 1007.9 5.4
28/08:30am 13.4 8.3 9.3 76 2.1 WNW 26 54 14 29 1007.8 1007.8 5.4
28/08:08am 13.4 7.8 8.9 74 2.3 WNW 28 46 15 25 1007.5 1007.5 5.4
28/08:00am 13.2 8.4 8.9 75 2.2 WNW 24 41 13 22 1007.4 1007.4 5.4
28/07:30am 13.0 8.1 8.5 74 2.2 NW 24 48 13 26 1007.4 1007.4 5.4
28/07:24am 13.1 7.4 8.4 73 2.3 NW 28 48 15 26 1007.3 1007.3 5.4
28/07:00am 12.4 8.4 8.3 76 2.0 NW 19 32 10 17 1007.5 1007.5 5.4
28/06:30am 12.1 7.7 7.6 74 2.2 NW 20 39 11 21 1007.3 1007.3 5.4
28/06:00am 12.3 6.7 7.0 70 2.6 NW 26 46 14 25 1007.3 1007.3 5.4
28/05:30am 12.0 7.5 7.1 72 2.4 NW 20 37 11 20 1007.2 1007.2 5.4
28/05:00am 11.8 6.9 6.9 72 2.3 NW 22 35 12 19 1006.9 1006.9 5.4
28/04:30am 11.6 6.7 6.7 72 2.3 NW 22 41 12 22 1007.1 1007.1 5.4
28/04:00am 11.3 6.8 6.2 71 2.4 NW 19 35 10 19 1007.8 1007.8 5.4
28/03:30am 10.9 6.7 5.9 71 2.3 WNW 17 33 9 18 1008.0 1008.0 5.4
28/03:00am 11.5 7.1 6.4 71 2.4 WNW 19 39 10 21 1008.2 1008.2 5.4
28/02:30am 10.9 6.8 6.3 73 2.2 WNW 17 33 9 18 1008.6 1008.6 5.4
28/02:00am 11.3 5.7 5.4 67 2.7 WNW 24 35 13 19 1008.8 1008.8 5.4
28/01:30am 10.7 7.2 5.5 70 2.4 WNW 13 20 7 11 1009.4 1009.4 5.4
28/01:00am 10.7 7.1 4.8 67 2.7 WNW 13 26 7 14 1009.9 1009.9 5.4
28/12:30am 11.1 7.1 4.8 65 2.9 WNW 15 28 8 15 1010.2 1010.2 5.4
28/12:00am 10.8 5.1 4.7 66 2.8 WNW 24 35 13 19 1010.3 1010.3 5.4

Other Formats:

Comma delimited format used in spreadsheet applications
http://www.bom.gov.au/fwo/IDV60801/IDV60801.94886.axf

JavaScript Object Notation format (JSON) in row-major order
http://www.bom.gov.au/fwo/IDV60801/IDV60801.94886.json